createdAt,value
2017-10-24T00:01:51.324Z,7.80
2017-10-24T00:04:18.830Z,7.80
2017-10-24T00:06:46.285Z,7.80
2017-10-24T00:09:13.795Z,7.80
2017-10-24T00:11:42.035Z,7.80
2017-10-24T00:14:09.511Z,7.80
2017-10-24T00:16:37.011Z,7.80
2017-10-24T00:19:04.479Z,7.70
2017-10-24T00:21:31.991Z,7.70
2017-10-24T00:23:59.462Z,7.80
2017-10-24T00:26:27.722Z,7.70
2017-10-24T00:28:55.967Z,7.70
2017-10-24T00:31:23.483Z,7.70
2017-10-24T00:33:51.735Z,7.70
2017-10-24T00:36:19.200Z,7.70
2017-10-24T00:38:47.466Z,7.70
2017-10-24T00:41:14.930Z,7.70
2017-10-24T00:43:43.196Z,7.60
2017-10-24T00:46:10.670Z,7.60
2017-10-24T00:48:38.174Z,7.60
2017-10-24T00:51:05.635Z,7.60
2017-10-24T00:53:33.120Z,7.60
2017-10-24T00:56:00.607Z,7.60
2017-10-24T00:58:28.855Z,7.60
2017-10-24T01:00:56.359Z,7.60
2017-10-24T01:03:23.824Z,7.60
2017-10-24T01:05:51.311Z,7.60
2017-10-24T01:08:18.780Z,7.60
2017-10-24T01:10:46.246Z,7.60
2017-10-24T01:13:13.762Z,7.70
2017-10-24T01:15:41.231Z,7.70
2017-10-24T01:18:08.731Z,7.70
2017-10-24T01:20:36.208Z,7.70
2017-10-24T01:23:04.443Z,7.70
2017-10-24T01:25:31.928Z,7.70
2017-10-24T01:27:59.397Z,7.70
2017-10-24T01:30:27.671Z,7.70
2017-10-24T01:32:55.135Z,7.70
2017-10-24T01:35:23.422Z,7.80
2017-10-24T01:37:51.674Z,7.80
2017-10-24T01:40:19.147Z,7.80
2017-10-24T01:42:47.463Z,7.80
2017-10-24T01:45:14.956Z,7.80
2017-10-24T01:47:42.456Z,7.80
2017-10-24T01:50:09.931Z,7.80
2017-10-24T01:52:37.410Z,7.90
2017-10-24T01:55:04.907Z,7.90
2017-10-24T01:57:32.366Z,7.90
2017-10-24T01:59:59.864Z,7.80
2017-10-24T02:02:27.342Z,7.80
2017-10-24T02:04:54.847Z,7.90
2017-10-24T02:07:23.088Z,7.90
2017-10-24T02:09:50.557Z,7.90
2017-10-24T02:12:18.067Z,7.90
2017-10-24T02:14:45.529Z,7.90
2017-10-24T02:17:13.033Z,7.90
2017-10-24T02:19:40.564Z,7.90
2017-10-24T02:22:08.051Z,7.90
2017-10-24T02:24:35.517Z,7.90
2017-10-24T02:27:03.011Z,7.90
2017-10-24T02:29:31.249Z,7.90
2017-10-24T02:31:58.747Z,7.90
2017-10-24T02:34:26.219Z,7.90
2017-10-24T02:36:53.720Z,7.80
2017-10-24T02:39:21.185Z,7.90
2017-10-24T02:41:48.656Z,7.90
2017-10-24T02:44:16.151Z,7.80
2017-10-24T02:46:43.617Z,7.90
2017-10-24T02:49:11.110Z,7.80
2017-10-24T02:51:38.598Z,7.80
2017-10-24T02:54:06.117Z,7.80
2017-10-24T02:56:33.559Z,7.90
2017-10-24T02:59:01.050Z,7.90
2017-10-24T03:01:28.575Z,7.90
2017-10-24T03:03:56.044Z,7.90
2017-10-24T03:06:23.518Z,7.90
2017-10-24T03:08:51.010Z,8.00
2017-10-24T03:11:18.530Z,8.00
2017-10-24T03:13:45.988Z,8.00
2017-10-24T03:16:13.450Z,7.90
2017-10-24T03:18:40.954Z,7.90
2017-10-24T03:21:09.232Z,8.00
2017-10-24T03:23:37.470Z,8.00
2017-10-24T03:26:04.955Z,8.00
2017-10-24T03:28:33.192Z,8.00
2017-10-24T03:31:00.738Z,7.90
2017-10-24T03:33:28.199Z,8.00
2017-10-24T03:35:55.688Z,8.00
2017-10-24T03:38:23.149Z,8.00
2017-10-24T03:40:50.651Z,8.00
2017-10-24T03:43:18.122Z,8.00
2017-10-24T03:45:45.627Z,8.00
2017-10-24T03:48:13.148Z,7.90
2017-10-24T03:50:40.623Z,8.00
2017-10-24T03:53:08.142Z,8.00
2017-10-24T03:55:36.374Z,8.00
2017-10-24T03:58:03.841Z,7.90
2017-10-24T04:00:31.360Z,7.90
2017-10-24T04:02:58.818Z,7.90
2017-10-24T04:05:26.327Z,7.90
2017-10-24T04:07:54.569Z,7.90
2017-10-24T04:10:22.092Z,7.90
2017-10-24T04:12:49.558Z,7.90
2017-10-24T04:15:17.047Z,8.00
2017-10-24T04:17:44.564Z,8.00
2017-10-24T04:20:12.100Z,8.00
2017-10-24T04:22:40.372Z,7.90
2017-10-24T04:25:07.853Z,7.90
2017-10-24T04:27:35.346Z,7.80
2017-10-24T04:30:02.804Z,7.80
2017-10-24T04:32:30.295Z,7.80
2017-10-24T04:34:57.774Z,7.70
2017-10-24T04:37:26.019Z,7.80
2017-10-24T04:39:53.541Z,7.80
2017-10-24T04:42:21.011Z,7.80
2017-10-24T04:44:48.487Z,7.80
2017-10-24T04:47:15.974Z,7.80
2017-10-24T04:49:43.436Z,7.80
2017-10-24T04:52:11.708Z,7.90
2017-10-24T04:54:39.192Z,7.90
2017-10-24T04:57:07.451Z,7.80
2017-10-24T04:59:35.687Z,7.80
2017-10-24T05:02:03.203Z,7.80
2017-10-24T05:04:30.662Z,7.80
2017-10-24T05:06:58.147Z,7.70
2017-10-24T05:09:25.665Z,7.80
2017-10-24T05:11:53.895Z,7.80
2017-10-24T05:14:21.376Z,7.80
2017-10-24T05:16:48.859Z,7.80
2017-10-24T05:19:17.134Z,7.70
2017-10-24T05:21:45.394Z,7.70
2017-10-24T05:24:12.908Z,7.70
2017-10-24T05:26:40.391Z,7.70
2017-10-24T05:29:07.900Z,7.70
2017-10-24T05:31:36.160Z,7.70
2017-10-24T05:34:03.670Z,7.70
2017-10-24T05:36:31.164Z,7.70
2017-10-24T05:38:58.631Z,7.80
2017-10-24T05:41:26.162Z,7.80
2017-10-24T05:43:53.664Z,7.80
2017-10-24T05:46:21.908Z,8.00
2017-10-24T05:48:49.425Z,8.00
2017-10-24T05:51:16.895Z,8.00
2017-10-24T05:53:44.451Z,7.90
2017-10-24T05:56:11.949Z,7.80
2017-10-24T05:58:39.457Z,7.80
2017-10-24T06:01:06.948Z,7.80
2017-10-24T06:03:34.416Z,7.80
2017-10-24T06:06:01.901Z,7.70
2017-10-24T06:08:29.387Z,8.00
2017-10-24T06:10:56.896Z,8.10
2017-10-24T06:13:24.373Z,8.20
2017-10-24T06:15:51.830Z,8.20
2017-10-24T06:18:20.102Z,8.10
2017-10-24T06:20:47.577Z,8.00
2017-10-24T06:23:15.838Z,8.00
2017-10-24T06:25:43.295Z,8.00
2017-10-24T06:28:10.808Z,8.00
2017-10-24T06:30:38.286Z,8.00
2017-10-24T06:33:05.756Z,8.10
2017-10-24T06:35:33.247Z,8.10
2017-10-24T06:38:01.503Z,8.20
2017-10-24T06:40:29.007Z,8.20
2017-10-24T06:42:56.484Z,8.30
2017-10-24T06:45:23.951Z,8.30
2017-10-24T06:47:51.450Z,8.20
2017-10-24T06:50:18.922Z,8.30
2017-10-24T06:52:47.164Z,8.30
2017-10-24T06:55:14.626Z,8.30
2017-10-24T06:57:42.103Z,8.30
2017-10-24T07:00:10.376Z,8.60
2017-10-24T07:02:37.851Z,8.60
2017-10-24T07:05:06.111Z,8.70
2017-10-24T07:07:34.364Z,8.80
2017-10-24T07:10:01.859Z,8.70
2017-10-24T07:12:30.078Z,8.80
2017-10-24T07:14:57.540Z,8.80
2017-10-24T07:17:25.043Z,8.80
2017-10-24T07:19:53.816Z,8.70
2017-10-24T07:22:21.302Z,8.70
2017-10-24T07:24:49.538Z,8.70
2017-10-24T07:27:17.023Z,8.70
2017-10-24T07:29:45.259Z,8.60
2017-10-24T07:32:12.719Z,8.60
2017-10-24T07:34:40.219Z,8.70
2017-10-24T07:37:08.478Z,8.80
2017-10-24T07:39:35.978Z,8.80
2017-10-24T07:42:03.452Z,8.90
2017-10-24T07:44:30.939Z,8.90
2017-10-24T07:46:58.408Z,8.90
2017-10-24T07:49:25.887Z,9.00
2017-10-24T07:51:53.373Z,9.10
2017-10-24T07:54:20.850Z,9.10
2017-10-24T07:56:48.349Z,9.30
2017-10-24T07:59:15.807Z,9.30
2017-10-24T08:01:43.271Z,9.30
2017-10-24T08:04:10.771Z,9.30
2017-10-24T08:06:38.279Z,9.30
2017-10-24T08:09:05.744Z,9.30
2017-10-24T08:11:33.204Z,9.30
2017-10-24T08:14:00.735Z,9.40
2017-10-24T08:16:28.194Z,9.40
2017-10-24T08:18:55.712Z,9.40
2017-10-24T08:21:23.950Z,9.40
2017-10-24T08:23:51.409Z,9.40
2017-10-24T08:26:18.887Z,9.40
2017-10-24T08:28:47.140Z,9.40
2017-10-24T08:31:14.622Z,9.50
2017-10-24T08:33:42.859Z,9.50
2017-10-24T08:36:10.361Z,9.50
2017-10-24T08:38:38.653Z,9.60
2017-10-24T08:41:06.915Z,9.60
2017-10-24T08:43:35.175Z,9.60
2017-10-24T08:46:02.639Z,9.60
2017-10-24T08:48:30.918Z,9.60
2017-10-24T08:50:58.383Z,9.60
2017-10-24T08:53:26.650Z,9.60
2017-10-24T08:55:54.894Z,9.70
2017-10-24T08:58:22.384Z,9.60
2017-10-24T09:00:50.691Z,9.80
2017-10-24T09:03:18.180Z,9.80
2017-10-24T09:09:42.111Z,9.90
2017-10-24T09:12:10.570Z,10.00
2017-10-24T09:14:38.145Z,10.10
2017-10-24T09:17:43.527Z,10.30
2017-10-24T09:20:11.753Z,10.50
2017-10-24T09:22:39.259Z,10.50
2017-10-24T09:25:07.505Z,10.50
2017-10-24T09:27:35.008Z,10.50
2017-10-24T09:30:02.510Z,10.50
2017-10-24T09:32:30.773Z,10.50
2017-10-24T09:34:58.284Z,10.60
2017-10-24T09:37:26.522Z,10.60
2017-10-24T09:39:54.010Z,10.60
2017-10-24T09:42:21.508Z,10.70
2017-10-24T09:44:48.987Z,10.80
2017-10-24T09:47:16.498Z,11.20
2017-10-24T09:49:58.581Z,11.70
2017-10-24T09:52:26.091Z,11.70
2017-10-24T09:54:53.557Z,11.60
2017-10-24T09:57:21.043Z,11.30
2017-10-24T09:59:48.569Z,11.30
2017-10-24T10:02:16.041Z,11.50
2017-10-24T10:04:43.530Z,11.50
2017-10-24T10:07:10.994Z,11.50
2017-10-24T10:09:38.488Z,11.50
2017-10-24T10:12:08.984Z,11.60
2017-10-24T10:14:37.230Z,11.70
2017-10-24T10:17:04.743Z,11.80
2017-10-24T10:19:32.205Z,11.70
2017-10-24T10:21:59.672Z,11.80
2017-10-24T10:24:45.108Z,11.80
2017-10-24T10:27:12.562Z,11.90
2017-10-24T10:29:40.055Z,11.80
2017-10-24T10:32:07.539Z,11.80
2017-10-24T10:34:35.041Z,11.90
2017-10-24T10:37:02.530Z,12.00
2017-10-24T10:39:30.767Z,11.90
2017-10-24T10:41:59.032Z,12.00
2017-10-24T10:44:26.504Z,12.00
2017-10-24T10:46:54.018Z,12.00
2017-10-24T10:49:21.494Z,12.10
2017-10-24T10:51:48.971Z,12.20
2017-10-24T10:54:16.481Z,12.20
2017-10-24T10:56:43.962Z,12.20
2017-10-24T10:59:11.466Z,12.20
2017-10-24T11:01:38.940Z,12.20
2017-10-24T11:04:07.205Z,12.30
2017-10-24T11:06:34.684Z,12.30
2017-10-24T11:09:02.966Z,12.50
2017-10-24T11:11:30.458Z,12.40
2017-10-24T11:13:57.949Z,12.40
2017-10-24T11:16:25.458Z,12.40
2017-10-24T11:18:52.943Z,12.50
2017-10-24T11:21:20.450Z,12.40
2017-10-24T11:23:48.685Z,12.40
2017-10-24T11:26:16.171Z,12.40
2017-10-24T11:28:43.683Z,12.50
2017-10-24T11:31:11.177Z,12.50
2017-10-24T11:33:38.634Z,12.60
2017-10-24T11:36:06.184Z,12.70
2017-10-24T11:38:33.655Z,12.90
2017-10-24T11:41:01.129Z,13.00
2017-10-24T11:43:29.415Z,13.00
2017-10-24T11:45:57.647Z,13.10
2017-10-24T11:48:25.143Z,13.10
2017-10-24T11:50:53.412Z,13.30
2017-10-24T11:53:21.647Z,13.30
2017-10-24T11:55:49.158Z,13.30
2017-10-24T11:58:17.411Z,13.30
2017-10-24T12:00:44.920Z,13.30
2017-10-24T12:03:12.856Z,13.30
2017-10-24T12:05:41.099Z,13.30
2017-10-24T12:08:08.570Z,13.20
2017-10-24T12:10:36.072Z,13.30
2017-10-24T12:13:04.290Z,13.40
2017-10-24T12:15:31.795Z,13.40
2017-10-24T12:18:00.027Z,13.50
2017-10-24T12:20:27.549Z,13.50
2017-10-24T12:22:54.996Z,13.70
2017-10-24T12:25:22.462Z,13.70
2017-10-24T12:27:49.952Z,13.80
2017-10-24T12:30:17.430Z,13.80
2017-10-24T12:32:44.924Z,13.70
2017-10-24T12:35:13.187Z,13.50
2017-10-24T12:37:41.468Z,13.60
2017-10-24T12:40:09.711Z,13.70
2017-10-24T12:42:37.839Z,13.70
2017-10-24T12:45:09.032Z,13.70
2017-10-24T12:47:36.517Z,13.70
2017-10-24T12:50:10.300Z,13.60
2017-10-24T12:52:37.779Z,13.60
2017-10-24T12:55:06.051Z,13.60
2017-10-24T12:57:49.351Z,13.50
2017-10-24T13:00:16.879Z,13.50
2017-10-24T13:02:44.355Z,13.60
2017-10-24T13:05:21.768Z,13.60
2017-10-24T13:07:49.247Z,13.70
2017-10-24T13:10:16.739Z,13.80
2017-10-24T13:12:44.224Z,13.90
2017-10-24T13:15:11.684Z,13.90
2017-10-24T13:17:39.586Z,14.00
2017-10-24T13:20:07.043Z,13.80
2017-10-24T13:22:34.541Z,13.80
2017-10-24T13:25:02.788Z,13.90
2017-10-24T13:27:30.249Z,14.00
2017-10-24T13:29:58.499Z,13.90
2017-10-24T13:32:25.966Z,13.90
2017-10-24T13:34:53.478Z,13.90
2017-10-24T13:37:20.955Z,13.90
2017-10-24T13:39:48.459Z,13.90
2017-10-24T13:42:17.461Z,13.80
2017-10-24T13:44:45.695Z,13.80
2017-10-24T13:47:13.183Z,13.80
2017-10-24T13:49:41.426Z,13.90
2017-10-24T13:52:08.919Z,13.90
2017-10-24T13:54:37.139Z,14.00
2017-10-24T13:57:04.640Z,14.00
2017-10-24T13:59:32.125Z,14.10
2017-10-24T14:02:00.356Z,14.20
2017-10-24T14:04:33.583Z,14.10
2017-10-24T14:07:06.770Z,14.10
2017-10-24T14:09:41.499Z,14.10
2017-10-24T14:12:10.475Z,14.00
2017-10-24T14:14:37.989Z,14.00
2017-10-24T14:17:05.440Z,13.90
2017-10-24T14:19:32.908Z,13.80
2017-10-24T14:22:00.397Z,13.80
2017-10-24T14:24:27.860Z,14.20
2017-10-24T14:26:55.373Z,14.10
2017-10-24T14:29:22.844Z,14.10
2017-10-24T14:31:50.308Z,14.00
2017-10-24T14:34:17.837Z,14.10
2017-10-24T14:36:46.078Z,13.90
2017-10-24T14:39:13.581Z,13.80
2017-10-24T14:41:41.830Z,14.00
2017-10-24T14:44:09.297Z,14.00
2017-10-24T14:46:38.309Z,13.90
2017-10-24T14:49:06.565Z,13.90
2017-10-24T14:51:35.574Z,13.90
2017-10-24T14:54:03.831Z,14.00
2017-10-24T14:56:31.309Z,13.90
2017-10-24T14:58:59.564Z,13.90
2017-10-24T15:01:28.558Z,13.80
2017-10-24T15:03:56.046Z,13.80
2017-10-24T15:06:24.287Z,13.80
2017-10-24T15:08:51.779Z,13.70
2017-10-24T15:11:20.042Z,13.80
2017-10-24T15:13:48.291Z,13.70
2017-10-24T15:16:15.810Z,13.80
2017-10-24T15:18:43.269Z,13.70
2017-10-24T15:21:10.764Z,13.70
2017-10-24T15:23:38.258Z,13.70
2017-10-24T15:26:06.550Z,13.60
2017-10-24T15:28:34.798Z,13.50
2017-10-24T15:31:03.780Z,13.50
2017-10-24T15:33:31.273Z,13.40
2017-10-24T15:35:59.491Z,13.30
2017-10-24T15:38:26.995Z,13.30
2017-10-24T15:40:55.236Z,13.20
2017-10-24T15:43:22.712Z,13.20
2017-10-24T15:45:50.221Z,13.10
2017-10-24T15:48:17.673Z,13.10
2017-10-24T15:50:45.159Z,13.00
2017-10-24T15:53:12.623Z,12.90
2017-10-24T15:55:40.133Z,12.70
2017-10-24T15:58:08.363Z,12.60
2017-10-24T16:00:35.820Z,12.60
2017-10-24T16:03:04.102Z,12.30
2017-10-24T16:05:31.573Z,12.30
2017-10-24T16:07:59.100Z,12.20
2017-10-24T16:10:26.609Z,12.10
2017-10-24T16:12:54.897Z,11.70
2017-10-24T16:15:23.177Z,11.60
2017-10-24T16:17:51.848Z,11.50
2017-10-24T16:20:20.077Z,11.40
2017-10-24T16:22:47.548Z,11.40
2017-10-24T16:25:15.058Z,11.30
2017-10-24T16:27:42.555Z,11.20
2017-10-24T16:30:10.057Z,11.10
2017-10-24T16:32:37.574Z,11.00
2017-10-24T16:35:05.051Z,11.00
2017-10-24T16:37:33.328Z,11.10
2017-10-24T16:40:00.826Z,11.00
2017-10-24T16:42:29.091Z,11.10
2017-10-24T16:44:57.319Z,11.10
2017-10-24T16:47:24.799Z,11.10
2017-10-24T16:49:52.295Z,11.00
2017-10-24T16:52:19.800Z,10.90
2017-10-24T16:54:47.319Z,10.80
2017-10-24T16:57:15.612Z,11.00
2017-10-24T16:59:43.096Z,11.00
2017-10-24T17:02:10.555Z,10.80
2017-10-24T17:04:38.044Z,10.80
2017-10-24T17:07:05.516Z,10.80
2017-10-24T17:09:33.800Z,10.80
2017-10-24T17:12:02.037Z,10.70
2017-10-24T17:14:30.294Z,10.80
2017-10-24T17:16:57.814Z,10.80
2017-10-24T17:19:25.300Z,10.80
2017-10-24T17:21:52.808Z,10.80
2017-10-24T17:24:20.280Z,10.90
2017-10-24T17:26:48.539Z,10.80
2017-10-24T17:29:16.015Z,10.80
2017-10-24T17:31:44.279Z,10.80
2017-10-24T17:34:11.753Z,10.80
2017-10-24T17:36:40.020Z,10.70
2017-10-24T17:39:07.504Z,10.70
2017-10-24T17:41:34.976Z,10.70
2017-10-24T17:44:02.536Z,10.70
2017-10-24T17:46:30.113Z,10.80
2017-10-24T17:48:57.627Z,10.80
2017-10-24T17:51:25.875Z,10.80
2017-10-24T17:53:53.392Z,10.80
2017-10-24T17:56:20.886Z,10.80
2017-10-24T17:58:48.427Z,10.80
2017-10-24T18:01:15.886Z,10.80
2017-10-24T18:03:43.385Z,10.70
2017-10-24T18:06:10.890Z,10.60
2017-10-24T18:08:38.349Z,10.40
2017-10-24T18:11:05.847Z,10.40
2017-10-24T18:13:33.345Z,10.30
2017-10-24T18:16:00.848Z,10.40
2017-10-24T18:18:28.325Z,10.40
2017-10-24T18:20:55.844Z,10.40
2017-10-24T18:23:23.367Z,10.20
2017-10-24T18:25:51.616Z,9.80
2017-10-24T18:28:19.118Z,9.80
2017-10-24T18:30:46.610Z,9.70
2017-10-24T18:33:14.098Z,9.70
2017-10-24T18:35:41.576Z,9.80
2017-10-24T18:38:09.847Z,9.60
2017-10-24T18:40:38.110Z,9.50
2017-10-24T18:43:05.610Z,9.50
2017-10-24T18:45:33.067Z,9.50
2017-10-24T18:48:00.536Z,9.60
2017-10-24T18:50:28.058Z,9.70
2017-10-24T18:52:56.294Z,9.50
2017-10-24T18:55:23.791Z,9.50
2017-10-24T18:57:52.036Z,9.50
2017-10-24T19:00:19.569Z,9.50
2017-10-24T19:02:47.131Z,9.60
2017-10-24T19:05:14.628Z,9.50
2017-10-24T19:07:43.362Z,9.50
2017-10-24T19:10:11.225Z,9.50
2017-10-24T19:12:38.960Z,9.50
2017-10-24T19:15:06.436Z,9.40
2017-10-24T19:17:34.696Z,9.30
2017-10-24T19:20:02.166Z,9.30
2017-10-24T19:22:30.618Z,9.00
2017-10-24T19:24:58.111Z,9.00
2017-10-24T19:27:26.333Z,9.10
2017-10-24T19:29:53.809Z,9.10
2017-10-24T19:32:21.270Z,9.10
2017-10-24T19:34:48.759Z,9.20
2017-10-24T19:37:17.008Z,8.90
2017-10-24T19:39:44.494Z,8.80
2017-10-24T19:42:12.767Z,8.90
2017-10-24T19:44:41.019Z,9.00
2017-10-24T19:47:08.538Z,9.00
2017-10-24T19:49:35.989Z,8.70
2017-10-24T19:52:03.493Z,8.70
2017-10-24T19:54:30.960Z,8.80
2017-10-24T19:56:58.460Z,8.80
2017-10-24T19:59:25.926Z,8.90
2017-10-24T20:01:53.447Z,8.90
2017-10-24T20:04:21.684Z,8.90
2017-10-24T20:06:49.510Z,8.90
2017-10-24T20:09:17.780Z,8.80
2017-10-24T20:11:46.019Z,8.80
2017-10-24T20:14:13.518Z,8.80
2017-10-24T20:16:41.749Z,8.60
2017-10-24T20:19:09.248Z,8.60
2017-10-24T20:21:37.483Z,8.30
2017-10-24T20:24:04.955Z,8.30
2017-10-24T20:26:32.448Z,8.50
2017-10-24T20:28:59.919Z,8.60
2017-10-24T20:31:27.459Z,8.70
2017-10-24T20:33:55.712Z,8.50
2017-10-24T20:36:23.193Z,8.50
2017-10-24T20:38:51.437Z,8.50
2017-10-24T20:41:18.927Z,8.50
2017-10-24T20:43:47.191Z,8.50
2017-10-24T20:46:14.689Z,8.50
2017-10-24T20:48:43.351Z,8.30
2017-10-24T20:51:11.588Z,8.40
2017-10-24T20:53:39.047Z,8.40
2017-10-24T20:56:06.554Z,8.50
2017-10-24T20:58:34.771Z,8.40
2017-10-24T21:01:02.263Z,8.40
2017-10-24T21:03:29.740Z,8.50
2017-10-24T21:05:57.979Z,8.60
2017-10-24T21:08:25.477Z,8.60
2017-10-24T21:10:53.723Z,8.70
2017-10-24T21:13:21.208Z,8.70
2017-10-24T21:15:49.455Z,8.70
2017-10-24T21:18:17.019Z,8.70
2017-10-24T21:20:44.507Z,8.70
2017-10-24T21:23:12.754Z,8.70
2017-10-24T21:25:40.263Z,8.70
2017-10-24T21:28:07.758Z,8.70
2017-10-24T21:30:35.251Z,8.60
2017-10-24T21:33:03.488Z,8.70
2017-10-24T21:35:31.000Z,8.70
2017-10-24T21:37:58.483Z,8.60
2017-10-24T21:40:25.993Z,8.60
2017-10-24T21:42:53.476Z,8.70
2017-10-24T21:45:20.988Z,8.70
2017-10-24T21:47:48.498Z,8.70
2017-10-24T21:50:15.981Z,8.70
2017-10-24T21:52:43.467Z,8.70
2017-10-24T21:55:10.940Z,8.70
2017-10-24T21:57:38.440Z,8.80
2017-10-24T22:00:05.922Z,8.70
2017-10-24T22:02:33.508Z,8.70
2017-10-24T22:05:01.326Z,8.60
2017-10-24T22:07:28.825Z,8.70
2017-10-24T22:09:56.345Z,8.70
2017-10-24T22:12:23.815Z,8.70
2017-10-24T22:14:51.300Z,8.80
2017-10-24T22:17:18.799Z,8.70
2017-10-24T22:19:47.470Z,8.70
2017-10-24T22:22:14.944Z,8.60
2017-10-24T22:24:43.179Z,8.40
2017-10-24T22:27:10.681Z,8.40
2017-10-24T22:29:38.947Z,8.50
2017-10-24T22:32:07.492Z,8.40
2017-10-24T22:34:34.975Z,8.40
2017-10-24T22:37:02.469Z,8.30
2017-10-24T22:39:29.969Z,8.40
2017-10-24T22:41:57.428Z,8.50
2017-10-24T22:44:24.981Z,8.60
2017-10-24T22:56:42.531Z,8.60
2017-10-24T22:59:09.999Z,8.60
2017-10-24T23:01:37.499Z,8.60
2017-10-24T23:04:04.989Z,8.60
2017-10-24T23:06:32.525Z,8.60
2017-10-24T23:09:00.014Z,8.60
2017-10-24T23:11:28.255Z,8.50
2017-10-24T23:13:56.139Z,8.50
2017-10-24T23:16:23.595Z,8.50
2017-10-24T23:18:51.069Z,8.40
2017-10-24T23:21:19.331Z,8.50
2017-10-24T23:23:46.795Z,8.40
2017-10-24T23:26:15.086Z,8.20
2017-10-24T23:28:43.349Z,8.10
2017-10-24T23:31:10.880Z,8.10
2017-10-24T23:33:38.331Z,8.20
2017-10-24T23:36:05.798Z,8.30
2017-10-24T23:38:33.278Z,8.20
2017-10-24T23:41:00.759Z,8.30
2017-10-24T23:43:29.011Z,8.30
2017-10-24T23:45:56.475Z,8.30
2017-10-24T23:48:23.977Z,8.30
2017-10-24T23:50:51.481Z,8.40
2017-10-24T23:53:18.948Z,8.30
2017-10-24T23:55:46.432Z,8.20
2017-10-24T23:58:14.687Z,8.30
